createdAt,value
2023-05-17T17:12:29.067Z,24.30
2023-05-17T17:14:55.906Z,24.50
2023-05-17T17:17:22.690Z,24.70
2023-05-17T17:19:49.913Z,25.20
2023-05-17T17:22:16.803Z,24.90
2023-05-17T17:24:44.452Z,25.60
2023-05-17T17:27:11.650Z,25.20
2023-05-17T17:29:38.585Z,24.90
2023-05-17T17:32:05.988Z,24.50
2023-05-17T17:34:33.738Z,24.50
2023-05-17T17:37:00.728Z,23.40
2023-05-17T17:39:30.047Z,23.30
2023-05-17T17:41:56.788Z,24.10
2023-05-17T17:44:23.674Z,24.50
2023-05-17T17:46:50.601Z,25.50
2023-05-17T17:49:17.435Z,25.70
2023-05-17T17:51:44.164Z,25.10
2023-05-17T17:54:10.999Z,24.00
2023-05-17T17:56:38.170Z,22.40
2023-05-17T17:59:04.913Z,22.30
2023-05-17T18:01:33.763Z,22.80
2023-05-17T18:04:06.833Z,22.80
2023-05-17T18:06:33.833Z,22.40
2023-05-17T18:09:00.671Z,21.10
2023-05-17T18:11:28.051Z,19.90
2023-05-17T18:13:58.377Z,19.20
2023-05-17T18:16:25.213Z,19.20
2023-05-17T18:18:51.991Z,19.40
2023-05-17T18:21:18.860Z,19.90
2023-05-17T18:23:46.201Z,19.70
2023-05-17T18:26:14.196Z,19.60
2023-05-17T18:28:43.042Z,19.60
2023-05-17T18:31:11.471Z,19.80
2023-05-17T18:33:38.503Z,19.60
2023-05-17T18:36:05.833Z,19.90
2023-05-17T18:38:33.721Z,19.40
2023-05-17T18:41:00.568Z,18.80
2023-05-17T18:43:31.313Z,18.70
2023-05-17T18:45:58.158Z,18.30
2023-05-17T18:48:25.587Z,18.30
